Time;durP1;ratioP1;P1;durP2;ratioP2;P2;SDS_P1;SDS_P2;PMS_P1;PMS_P2;Temp;Humidity;BMP_temperature;BMP_pressure;BME280_temperature;BME280_humidity;BME280_pressure;Samples;Min_cycle;Max_cycle;Signal;HPM_P1;HPM_P2
2021/08/03 00:02:09;;;;;;;6.38;1.92;;;14.00;99.90;;;;;;5071363;28;20484;-83
2021/08/03 00:04:42;;;;;;;4.82;2.20;;;13.90;99.90;;;;;;5053491;28;20032;-83
2021/08/03 00:07:11;;;;;;;7.00;2.08;;;14.00;99.90;;;;;;5071399;28;20025;-83
2021/08/03 00:09:39;;;;;;;2.03;1.63;;;14.00;99.90;;;;;;5084648;28;20036;-83
2021/08/03 00:12:07;;;;;;;3.05;1.77;;;14.00;99.90;;;;;;5095422;28;20016;-82
2021/08/03 00:14:32;;;;;;;19.77;2.10;;;13.90;99.90;;;;;;5077496;28;20400;-81
2021/08/03 00:16:59;;;;;;;7.82;1.75;;;14.00;99.90;;;;;;5077405;28;20027;-81
2021/08/03 00:19:26;;;;;;;2.65;1.50;;;14.10;99.90;;;;;;5086980;28;20025;-80
2021/08/03 00:21:53;;;;;;;7.13;1.65;;;14.20;99.90;;;;;;5075016;28;20138;-82
2021/08/03 00:24:24;;;;;;;4.45;1.70;;;14.10;99.90;;;;;;5075010;28;20041;-81
2021/08/03 00:26:51;;;;;;;7.53;3.17;;;14.10;99.90;;;;;;5057173;28;20033;-81
2021/08/03 00:29:17;;;;;;;3.78;1.80;;;14.10;99.90;;;;;;5075618;28;20118;-82
2021/08/03 00:31:43;;;;;;;11.18;2.75;;;14.10;99.90;;;;;;5074598;28;20032;-81
2021/08/03 00:34:09;;;;;;;8.25;2.08;;;14.00;99.90;;;;;;5074920;28;20028;-82
2021/08/03 00:36:35;;;;;;;9.13;2.20;;;13.90;99.90;;;;;;5056883;28;20025;-81
2021/08/03 00:39:00;;;;;;;7.43;1.90;;;13.90;99.90;;;;;;5074916;28;20094;-82
2021/08/03 00:41:29;;;;;;;6.82;1.63;;;13.90;99.90;;;;;;5093616;28;20055;-80
2021/08/03 00:43:56;;;;;;;7.78;1.80;;;13.90;99.90;;;;;;5095074;28;20027;-80
2021/08/03 00:46:21;;;;;;;3.88;1.98;;;13.90;99.90;;;;;;5076744;28;20028;-81
2021/08/03 00:48:47;;;;;;;2.75;1.60;;;13.90;99.90;;;;;;5094977;28;20031;-82
2021/08/03 00:51:13;;;;;;;4.68;1.65;;;13.80;99.90;;;;;;5080008;28;20044;-82
2021/08/03 00:53:42;;;;;;;17.08;1.67;;;13.80;99.90;;;;;;5074538;28;20095;-83
2021/08/03 00:56:08;;;;;;;5.30;1.25;;;13.80;99.90;;;;;;5074483;28;20021;-82
2021/08/03 00:58:34;;;;;;;5.47;1.40;;;13.70;99.90;;;;;;5056482;28;20031;-83
2021/08/03 01:01:00;;;;;;;2.53;1.30;;;13.80;99.90;;;;;;5083714;28;20057;-83
2021/08/03 01:03:26;;;;;;;3.22;1.52;;;13.60;99.90;;;;;;5094570;28;20055;-83
2021/08/03 01:06:15;;;;;;;3.90;1.35;;;13.50;99.90;;;;;;5094687;28;20477;-83
2021/08/03 01:09:02;;;;;;;2.30;1.08;;;13.50;99.90;;;;;;5094636;28;20391;-82
2021/08/03 01:11:33;;;;;;;7.28;1.05;;;13.50;99.90;;;;;;5065197;28;20661;-83
2021/08/03 01:14:16;;;;;;;2.13;1.05;;;13.60;99.90;;;;;;5074337;28;20024;-83
2021/08/03 01:16:54;;;;;;;4.38;1.10;;;13.60;99.90;;;;;;5074181;28;20100;-83
2021/08/03 01:19:46;;;;;;;2.50;1.10;;;13.60;99.90;;;;;;5074017;28;20024;-82
2021/08/03 01:22:30;;;;;;;3.10;1.25;;;13.60;99.90;;;;;;5075544;28;20036;-83
2021/08/03 01:25:11;;;;;;;4.55;0.95;;;13.60;99.90;;;;;;5055993;28;20411;-83
2021/08/03 01:28:01;;;;;;;1.45;0.68;;;13.60;99.90;;;;;;5073889;28;20102;-83
2021/08/03 01:30:27;;;;;;;3.92;0.98;;;13.60;99.90;;;;;;5055877;28;20025;-83
2021/08/03 01:32:54;;;;;;;1.60;1.00;;;13.60;99.90;;;;;;5075991;28;20100;-83
2021/08/03 01:35:22;;;;;;;3.13;1.17;;;13.60;99.90;;;;;;5055922;28;20397;-82
2021/08/03 01:37:48;;;;;;;3.17;0.95;;;13.60;99.90;;;;;;5073801;28;20021;-83
2021/08/03 01:40:14;;;;;;;2.25;1.00;;;13.60;99.90;;;;;;5073639;28;20024;-83
2021/08/03 01:42:44;;;;;;;2.25;0.98;;;13.60;99.90;;;;;;5066050;28;20506;-83
2021/08/03 01:45:12;;;;;;;1.15;0.90;;;13.60;99.90;;;;;;5093936;28;20036;-83
2021/08/03 01:47:38;;;;;;;4.00;1.60;;;13.60;99.90;;;;;;5093737;28;20065;-83
2021/08/03 01:50:07;;;;;;;2.72;0.88;;;13.60;99.90;;;;;;5093820;28;20034;-83
2021/08/03 01:52:34;;;;;;;1.65;0.95;;;13.50;99.90;;;;;;5091724;28;20425;-83
2021/08/03 01:55:00;;;;;;;1.63;0.93;;;13.50;99.90;;;;;;5093656;28;20051;-83
2021/08/03 01:57:27;;;;;;;3.78;1.38;;;13.50;99.90;;;;;;5093628;28;20028;-83
2021/08/03 01:59:54;;;;;;;1.92;0.70;;;13.40;99.90;;;;;;5075560;28;20407;-83
2021/08/03 02:02:21;;;;;;;3.05;0.90;;;13.40;99.90;;;;;;5090755;28;20020;-83
2021/08/03 02:04:48;;;;;;;3.97;1.02;;;13.40;99.90;;;;;;5073318;28;20044;-83
2021/08/03 02:07:20;;;;;;;2.05;1.10;;;13.40;99.90;;;;;;5074012;28;20039;-83
2021/08/03 02:09:46;;;;;;;1.00;0.90;;;13.30;99.90;;;;;;5073350;28;20101;-83
2021/08/03 02:12:12;;;;;;;3.85;1.20;;;13.40;99.90;;;;;;5072854;28;20029;-83
2021/08/03 02:14:44;;;;;;;3.80;1.10;;;13.40;99.90;;;;;;5091335;28;20035;-83
2021/08/03 02:17:16;;;;;;;12.35;2.83;;;13.40;99.90;;;;;;5093259;28;20020;-82
2021/08/03 02:19:43;;;;;;;2.75;1.42;;;13.40;99.90;;;;;;5093157;28;20485;-83
2021/08/03 02:22:09;;;;;;;3.50;1.45;;;13.40;99.90;;;;;;5092981;28;20036;-83
2021/08/03 02:24:35;;;;;;;4.38;1.70;;;13.40;99.90;;;;;;5092518;28;20042;-83
2021/08/03 02:27:00;;;;;;;2.88;1.70;;;13.40;99.90;;;;;;5093072;28;20203;-83
2021/08/03 02:29:26;;;;;;;3.97;1.50;;;13.50;99.90;;;;;;5074914;28;20086;-84
2021/08/03 02:32:00;;;;;;;3.90;1.73;;;13.50;99.90;;;;;;5092590;28;20024;-83
2021/08/03 02:34:30;;;;;;;5.32;2.10;;;13.50;99.90;;;;;;5080501;28;20024;-83
2021/08/03 02:37:02;;;;;;;3.03;1.52;;;13.60;99.90;;;;;;5072588;28;20542;-83
2021/08/03 02:39:30;;;;;;;3.15;1.35;;;13.60;99.90;;;;;;5054661;28;20025;-83
2021/08/03 02:41:57;;;;;;;2.50;1.00;;;13.60;99.90;;;;;;5072324;28;20017;-83
2021/08/03 02:44:23;;;;;;;4.40;1.05;;;13.50;99.90;;;;;;5079959;28;20043;-83
2021/08/03 02:46:53;;;;;;;5.05;1.15;;;13.60;99.90;;;;;;5074377;28;20020;-83
2021/08/03 02:49:28;;;;;;;2.75;1.10;;;13.60;99.90;;;;;;5074896;28;20020;-82
2021/08/03 02:51:54;;;;;;;12.93;1.20;;;13.50;99.90;;;;;;5074211;28;20042;-82
2021/08/03 02:54:31;;;;;;;17.63;1.63;;;13.60;99.90;;;;;;5087953;28;20433;-83
2021/08/03 02:57:00;;;;;;;3.40;1.52;;;13.50;99.90;;;;;;5054206;28;20401;-83
2021/08/03 02:59:31;;;;;;;4.43;1.20;;;13.50;99.90;;;;;;5072136;28;20028;-83
2021/08/03 03:01:58;;;;;;;4.65;1.25;;;13.60;99.90;;;;;;5072062;28;20028;-83
2021/08/03 03:04:32;;;;;;;4.35;1.50;;;13.60;99.90;;;;;;5073845;28;20408;-83
2021/08/03 03:07:01;;;;;;;4.30;1.33;;;13.60;99.90;;;;;;5073736;28;20395;-83
2021/08/03 03:09:29;;;;;;;2.75;1.40;;;13.70;99.90;;;;;;5092324;28;20031;-83
2021/08/03 03:11:57;;;;;;;6.15;2.08;;;13.60;99.90;;;;;;5092067;28;20111;-82
2021/08/03 03:14:25;;;;;;;6.90;2.17;;;13.70;99.90;;;;;;5092277;28;20391;-82
2021/08/03 03:16:54;;;;;;;4.05;2.10;;;13.70;99.90;;;;;;5064690;28;20020;-83
2021/08/03 03:19:21;;;;;;;5.05;2.78;;;13.70;99.90;;;;;;5074067;28;20024;-83
2021/08/03 03:21:48;;;;;;;4.88;1.98;;;13.70;99.90;;;;;;5074098;28;20561;-83
2021/08/03 03:24:15;;;;;;;4.85;2.33;;;13.70;99.90;;;;;;5091903;28;20040;-83
2021/08/03 03:26:43;;;;;;;6.25;2.20;;;13.70;99.90;;;;;;5058596;28;20036;-83
2021/08/03 03:29:10;;;;;;;8.30;2.83;;;13.60;99.90;;;;;;5071801;28;20093;-82
2021/08/03 03:31:36;;;;;;;4.00;2.08;;;13.60;99.90;;;;;;5080020;28;20111;-83
2021/08/03 03:34:05;;;;;;;8.63;2.22;;;13.60;99.90;;;;;;5078838;28;20017;-83
2021/08/03 03:36:33;;;;;;;6.47;1.85;;;13.60;99.90;;;;;;5071701;28;20025;-83
2021/08/03 03:39:00;;;;;;;7.28;2.30;;;13.60;99.90;;;;;;5071770;28;20021;-82
2021/08/03 03:41:28;;;;;;;2.83;1.80;;;13.50;99.90;;;;;;5053599;28;20485;-83
2021/08/03 03:43:54;;;;;;;4.75;2.53;;;13.60;99.90;;;;;;5061855;28;20043;-83
2021/08/03 03:46:21;;;;;;;8.82;2.28;;;13.60;99.90;;;;;;5091538;28;20028;-82
2021/08/03 03:48:55;;;;;;;4.57;1.92;;;13.60;99.90;;;;;;5091838;28;20032;-83
2021/08/03 03:51:26;;;;;;;;;;;13.60;99.90;;;;;;5092086;28;20035;-82
2021/08/03 03:54:00;;;;;;;2.10;1.50;;;13.50;99.90;;;;;;5085988;28;19918;-82
2021/08/03 03:56:31;;;;;;;3.92;1.65;;;13.60;99.90;;;;;;5071407;28;20021;-82
2021/08/03 03:59:01;;;;;;;5.03;2.05;;;13.60;99.90;;;;;;5053608;28;20031;-82
2021/08/03 04:01:28;;;;;;;4.40;1.80;;;13.50;99.90;;;;;;5071401;28;20024;-82
2021/08/03 04:03:58;;;;;;;2.45;1.67;;;13.50;99.90;;;;;;5074084;28;20036;-82
2021/08/03 04:06:25;;;;;;;4.15;1.65;;;13.50;99.90;;;;;;5073538;28;20081;-82
2021/08/03 04:08:50;;;;;;;4.45;1.45;;;13.50;99.90;;;;;;5091650;28;20047;-82
2021/08/03 04:11:16;;;;;;;4.53;1.77;;;13.50;99.90;;;;;;5091300;28;20480;-83
2021/08/03 04:13:48;;;;;;;7.55;2.05;;;13.60;99.90;;;;;;5091616;28;20024;-83
2021/08/03 04:16:14;;;;;;;9.30;2.05;;;13.60;99.90;;;;;;5071910;28;20036;-83
2021/08/03 04:18:40;;;;;;;7.20;1.88;;;13.60;99.90;;;;;;5053445;28;20070;-82
2021/08/03 04:21:05;;;;;;;6.32;2.20;;;13.60;99.90;;;;;;5053365;28;20021;-83
2021/08/03 04:23:31;;;;;;;3.33;1.48;;;13.70;99.90;;;;;;5053160;28;20032;-83
2021/08/03 04:25:56;;;;;;;8.70;2.20;;;13.70;99.90;;;;;;5085004;28;20437;-82
2021/08/03 04:28:22;;;;;;;8.27;1.73;;;13.70;99.90;;;;;;5091394;28;20032;-82
2021/08/03 04:30:47;;;;;;;3.50;2.13;;;13.70;99.90;;;;;;5091414;28;20055;-83
2021/08/03 04:33:13;;;;;;;3.67;2.03;;;13.70;99.90;;;;;;5091224;28;20058;-83
2021/08/03 04:35:39;;;;;;;6.90;1.63;;;13.70;99.90;;;;;;5064377;28;20052;-83
2021/08/03 04:38:04;;;;;;;5.30;2.10;;;13.70;99.90;;;;;;5071088;28;20485;-83
2021/08/03 04:40:30;;;;;;;8.80;2.25;;;13.80;99.90;;;;;;5071183;28;20028;-83
2021/08/03 04:42:56;;;;;;;7.72;2.30;;;13.80;99.90;;;;;;5070943;28;20097;-83
2021/08/03 04:45:22;;;;;;;7.90;2.28;;;13.80;99.90;;;;;;5074220;28;20435;-83
2021/08/03 04:47:49;;;;;;;3.90;2.40;;;13.90;99.90;;;;;;5091220;28;20028;-83
2021/08/03 04:50:18;;;;;;;6.22;2.58;;;13.90;99.90;;;;;;5073177;28;20027;-83
2021/08/03 04:52:43;;;;;;;3.13;1.77;;;13.80;99.90;;;;;;5072769;28;20496;-83
2021/08/03 04:55:10;;;;;;;7.07;2.63;;;13.90;99.90;;;;;;5091207;28;20094;-83
2021/08/03 04:57:37;;;;;;;12.98;3.42;;;13.90;99.90;;;;;;5073831;28;20028;-83
2021/08/03 05:00:04;;;;;;;8.02;3.05;;;14.00;99.90;;;;;;5074521;28;20029;-83
2021/08/03 05:02:30;;;;;;;13.63;4.32;;;14.10;99.90;;;;;;5074272;28;20031;-82
2021/08/03 05:04:55;;;;;;;6.55;3.05;;;14.10;99.90;;;;;;5056518;28;20025;-83
2021/08/03 05:07:21;;;;;;;11.63;3.47;;;14.10;99.90;;;;;;5074808;28;20024;-82
2021/08/03 05:09:46;;;;;;;9.45;2.80;;;14.30;99.90;;;;;;5056457;28;20028;-83
2021/08/03 05:12:12;;;;;;;12.20;3.83;;;14.30;99.90;;;;;;5074022;28;20024;-83
2021/08/03 05:14:38;;;;;;;18.33;6.18;;;14.30;99.90;;;;;;5074282;28;20029;-83
2021/08/03 05:17:03;;;;;;;15.07;5.53;;;14.30;99.90;;;;;;5082661;28;20549;-83
2021/08/03 05:19:29;;;;;;;18.27;4.28;;;14.30;99.90;;;;;;5094407;28;20046;-83
2021/08/03 05:21:54;;;;;;;13.32;5.20;;;14.30;99.90;;;;;;5094087;28;20034;-82
2021/08/03 05:24:25;;;;;;;8.35;4.25;;;14.40;99.90;;;;;;5094245;28;20399;-82
2021/08/03 05:26:52;;;;;;;10.98;3.45;;;14.40;99.90;;;;;;5071931;28;20480;-83
2021/08/03 05:29:18;;;;;;;10.45;3.35;;;14.40;99.90;;;;;;5056071;28;20032;-82
2021/08/03 05:31:43;;;;;;;5.05;2.58;;;14.40;99.90;;;;;;5081226;28;20571;-83
2021/08/03 05:34:09;;;;;;;2.58;1.40;;;14.30;99.90;;;;;;5094161;28;20020;-82
2021/08/03 05:36:34;;;;;;;4.55;1.58;;;14.30;99.90;;;;;;5094014;28;20020;-82
2021/08/03 05:39:00;;;;;;;4.47;1.75;;;14.30;99.90;;;;;;5074591;28;20028;-83
2021/08/03 05:41:25;;;;;;;4.22;1.30;;;14.30;99.90;;;;;;5087339;28;20445;-82
2021/08/03 05:43:51;;;;;;;3.85;1.30;;;14.40;99.90;;;;;;5093925;28;20024;-83
2021/08/03 05:46:17;;;;;;;4.10;1.67;;;14.30;99.90;;;;;;5093890;28;20099;-83
2021/08/03 05:48:43;;;;;;;8.50;3.97;;;14.30;99.90;;;;;;5061801;28;20141;-83
2021/08/03 05:51:08;;;;;;;7.13;1.92;;;14.30;99.90;;;;;;5055406;28;20170;-83
2021/08/03 05:53:34;;;;;;;2.80;1.40;;;14.50;99.90;;;;;;5073489;28;20031;-83
2021/08/03 05:56:00;;;;;;;4.55;1.33;;;14.50;99.90;;;;;;5073405;28;20024;-83
2021/08/03 05:58:26;;;;;;;3.58;1.50;;;14.60;99.90;;;;;;5081647;28;20020;-83
2021/08/03 06:00:51;;;;;;;11.45;3.17;;;14.60;99.90;;;;;;5091252;28;20535;-82
2021/08/03 06:03:17;;;;;;;3.30;1.45;;;14.70;99.90;;;;;;5074801;28;20024;-82
2021/08/03 06:05:42;;;;;;;7.82;1.60;;;14.70;99.90;;;;;;5093198;28;20480;-82
2021/08/03 06:08:11;;;;;;;6.55;1.42;;;14.60;99.90;;;;;;5092254;28;20020;-82
2021/08/03 06:10:37;;;;;;;6.63;1.55;;;14.60;99.90;;;;;;5093066;28;20039;-82
2021/08/03 06:13:04;;;;;;;5.50;1.52;;;14.60;99.90;;;;;;5059559;28;20485;-82
2021/08/03 06:15:37;;;;;;;4.00;2.00;;;14.70;99.90;;;;;;5055094;28;20028;-82
2021/08/03 06:18:31;;;;;;;3.93;1.03;;;14.80;99.90;;;;;;5054948;28;20027;-82
2021/08/03 06:20:58;;;;;;;4.75;1.38;;;14.90;99.90;;;;;;5072812;28;20274;-82
2021/08/03 06:23:24;;;;;;;7.40;2.08;;;15.00;99.90;;;;;;5086932;28;20035;-82
2021/08/03 06:25:52;;;;;;;6.07;1.60;;;15.20;99.90;;;;;;5083113;28;20074;-82
2021/08/03 06:28:21;;;;;;;4.18;1.55;;;15.40;99.90;;;;;;5072663;28;20032;-82
2021/08/03 06:30:50;;;;;;;1.50;1.00;;;15.50;99.90;;;;;;5072387;28;20035;-82
2021/08/03 06:33:17;;;;;;;1.83;1.10;;;15.70;99.90;;;;;;5064518;28;20024;-82
2021/08/03 06:35:45;;;;;;;1.98;1.10;;;15.90;99.90;;;;;;5092965;28;20027;-83
2021/08/03 06:38:11;;;;;;;1.10;0.88;;;16.00;99.90;;;;;;5092738;28;20042;-82
2021/08/03 06:40:47;;;;;;;3.47;1.30;;;16.10;99.90;;;;;;5074570;28;20102;-83
2021/08/03 06:43:17;;;;;;;9.73;1.38;;;16.20;99.90;;;;;;5085010;28;20032;-82
2021/08/03 06:45:48;;;;;;;2.25;0.80;;;16.20;99.90;;;;;;5054541;28;20036;-82
2021/08/03 06:48:32;;;;;;;2.97;1.10;;;16.30;99.90;;;;;;5088128;28;20028;-82
2021/08/03 06:51:04;;;;;;;1.45;0.80;;;16.30;99.90;;;;;;5074474;28;20028;-83
2021/08/03 06:53:30;;;;;;;2.47;0.75;;;16.30;99.90;;;;;;5092269;28;20024;-83
2021/08/03 06:55:58;;;;;;;4.68;1.27;;;16.40;99.90;;;;;;5092375;28;20024;-83
2021/08/03 06:58:54;;;;;;;1.17;1.02;;;16.40;99.90;;;;;;5071545;28;20617;-84
2021/08/03 07:01:36;;;;;;;2.58;2.03;;;16.50;99.90;;;;;;5083755;28;20032;-88
2021/08/03 07:04:04;;;;;;;4.60;1.02;;;16.50;99.90;;;;;;5074820;28;20120;-87
2021/08/03 07:06:32;;;;;;;1.85;0.90;;;16.70;99.90;;;;;;5081138;28;20035;-85
2021/08/03 07:08:59;;;;;;;1.45;1.00;;;16.90;99.90;;;;;;5068372;28;20045;-84
2021/08/03 07:11:29;;;;;;;1.38;1.00;;;16.90;99.90;;;;;;5079625;28;20107;-84
2021/08/03 07:13:57;;;;;;;3.85;0.90;;;16.80;99.90;;;;;;5069058;28;20016;-85
2021/08/03 07:16:24;;;;;;;1.13;1.02;;;16.90;99.90;;;;;;5080049;28;20028;-84
2021/08/03 07:18:50;;;;;;;6.22;1.10;;;17.00;99.90;;;;;;5076553;28;20024;-84
2021/08/03 07:21:17;;;;;;;2.10;1.20;;;17.00;99.90;;;;;;5076410;28;20103;-84
2021/08/03 07:23:44;;;;;;;2.47;1.15;;;17.10;99.90;;;;;;5074319;28;20497;-84
2021/08/03 07:26:09;;;;;;;7.10;1.00;;;17.30;99.90;;;;;;5074209;28;20070;-84
2021/08/03 07:28:35;;;;;;;2.15;0.88;;;17.30;99.90;;;;;;5076901;28;20055;-83
2021/08/03 07:31:01;;;;;;;4.30;1.20;;;17.20;99.90;;;;;;5074014;28;20458;-83
2021/08/03 07:33:26;;;;;;;3.38;1.30;;;17.30;99.90;;;;;;5053499;28;20439;-83
2021/08/03 07:35:52;;;;;;;2.25;0.90;;;17.60;99.90;;;;;;5077275;28;20020;-84
2021/08/03 07:38:17;;;;;;;3.28;0.90;;;17.80;99.90;;;;;;5049937;28;20158;-83
2021/08/03 07:40:43;;;;;;;1.55;1.00;;;17.90;99.90;;;;;;5086799;28;20028;-82
2021/08/03 07:43:09;;;;;;;2.28;1.00;;;18.00;99.90;;;;;;5067304;28;20052;-82
2021/08/03 07:45:37;;;;;;;6.47;1.10;;;18.00;99.90;;;;;;5073900;28;20025;-86
2021/08/03 07:48:05;;;;;;;6.00;1.63;;;18.20;99.90;;;;;;5066269;28;20024;-84
2021/08/03 07:50:30;;;;;;;7.28;1.38;;;18.20;99.90;;;;;;5051547;28;20024;-83
2021/08/03 07:52:56;;;;;;;5.57;1.25;;;18.30;99.90;;;;;;5066229;28;20503;-83
2021/08/03 07:55:21;;;;;;;1.77;1.20;;;18.10;99.90;;;;;;5086368;28;20081;-83
2021/08/03 07:57:47;;;;;;;6.15;0.90;;;18.10;99.90;;;;;;5070591;28;20039;-85
2021/08/03 08:00:14;;;;;;;1.60;1.20;;;18.00;99.90;;;;;;5070469;28;20031;-83
2021/08/03 08:02:40;;;;;;;4.00;1.00;;;17.90;99.90;;;;;;5060413;28;20050;-83
2021/08/03 08:05:06;;;;;;;5.10;1.42;;;17.70;99.90;;;;;;5071768;28;20029;-83
2021/08/03 08:07:31;;;;;;;4.55;1.42;;;17.70;99.90;;;;;;5067759;28;20036;-87
2021/08/03 08:09:57;;;;;;;4.63;1.05;;;17.50;99.90;;;;;;5051795;28;20078;-83
2021/08/03 08:12:22;;;;;;;2.50;0.95;;;17.60;99.90;;;;;;5088299;28;20101;-85
2021/08/03 08:14:48;;;;;;;3.50;0.90;;;17.70;99.90;;;;;;5091427;28;20549;-84
2021/08/03 08:17:13;;;;;;;1.42;0.90;;;17.80;99.90;;;;;;5091493;28;20020;-85
2021/08/03 08:19:40;;;;;;;1.65;0.80;;;17.90;99.90;;;;;;5091470;28;20100;-83
2021/08/03 08:22:05;;;;;;;2.90;1.35;;;18.00;99.90;;;;;;5087746;28;20047;-84
2021/08/03 08:24:31;;;;;;;2.78;1.10;;;18.10;99.90;;;;;;5091350;28;20500;-83
2021/08/03 08:26:56;;;;;;;2.50;0.63;;;18.30;99.90;;;;;;5091314;28;20035;-83
2021/08/03 08:29:22;;;;;;;0.88;0.70;;;18.40;99.90;;;;;;5091367;28;20020;-83
2021/08/03 08:31:48;;;;;;;3.78;0.85;;;18.50;99.90;;;;;;5086591;28;20028;-82
2021/08/03 08:34:13;;;;;;;2.60;1.35;;;18.60;99.90;;;;;;5057059;28;20123;-83
2021/08/03 08:36:39;;;;;;;2.30;1.13;;;18.60;99.90;;;;;;5056898;28;20021;-82
2021/08/03 08:39:06;;;;;;;5.07;1.75;;;18.60;99.90;;;;;;5074883;28;20477;-82
2021/08/03 08:41:34;;;;;;;3.05;0.68;;;18.60;99.90;;;;;;5075104;28;20024;-81
2021/08/03 08:44:02;;;;;;;2.22;1.00;;;18.50;99.90;;;;;;5094997;28;20099;-83
2021/08/03 08:46:34;;;;;;;2.05;0.98;;;18.60;99.90;;;;;;5095046;28;20024;-82
2021/08/03 08:49:01;;;;;;;2.42;0.90;;;18.80;99.90;;;;;;5095048;28;20026;-82
2021/08/03 08:51:27;;;;;;;3.28;1.23;;;18.70;99.90;;;;;;5094698;28;20066;-83
2021/08/03 08:53:53;;;;;;;2.05;0.88;;;19.00;99.90;;;;;;5076157;28;20020;-84
2021/08/03 08:56:18;;;;;;;1.20;0.93;;;18.90;99.90;;;;;;5056521;28;20023;-83
2021/08/03 08:58:44;;;;;;;3.63;0.80;;;19.00;99.90;;;;;;5074320;28;20090;-82
2021/08/03 09:01:10;;;;;;;1.00;0.65;;;19.10;99.90;;;;;;5074365;28;20025;-81
2021/08/03 09:03:36;;;;;;;2.45;0.70;;;19.40;99.90;;;;;;5086392;28;20028;-82
2021/08/03 09:06:05;;;;;;;1.42;0.70;;;19.60;99.90;;;;;;5094672;28;20031;-84
2021/08/03 09:08:43;;;;;;;2.05;1.05;;;19.70;99.90;;;;;;5094685;28;20076;-82
2021/08/03 09:11:20;;;;;;;2.92;1.05;;;19.50;99.90;;;;;;5094267;28;20069;-84
2021/08/03 09:14:03;;;;;;;1.40;0.90;;;19.40;99.90;;;;;;5083368;28;20034;-83
2021/08/03 09:16:45;;;;;;;1.95;0.88;;;19.40;99.90;;;;;;5074214;28;20488;-83
2021/08/03 09:19:37;;;;;;;6.47;0.90;;;19.40;99.90;;;;;;5050665;28;20024;-85
2021/08/03 09:22:15;;;;;;;3.38;1.00;;;19.30;99.90;;;;;;5073349;28;20027;-84
2021/08/03 09:24:41;;;;;;;2.00;1.00;;;19.50;99.90;;;;;;5078731;28;20071;-86
2021/08/03 09:27:07;;;;;;;1.92;0.90;;;19.80;99.90;;;;;;5088436;28;20056;-86
2021/08/03 09:29:43;;;;;;;1.02;0.93;;;20.00;99.90;;;;;;5071343;28;20068;-86
2021/08/03 09:32:09;;;;;;;1.60;0.80;;;20.00;99.90;;;;;;5069948;28;20029;-86
2021/08/03 09:34:35;;;;;;;5.57;1.40;;;20.10;99.90;;;;;;5086706;28;20073;-85
2021/08/03 09:37:01;;;;;;;3.08;1.20;;;20.00;99.90;;;;;;5087129;28;20025;-83
2021/08/03 09:39:38;;;;;;;0.63;0.60;;;19.90;99.90;;;;;;5083494;28;20036;-85
2021/08/03 09:42:07;;;;;;;0.60;0.60;;;19.90;99.90;;;;;;5072232;28;20502;-84
2021/08/03 09:44:33;;;;;;;3.08;1.33;;;20.20;99.90;;;;;;5073938;28;20113;-84
2021/08/03 09:46:59;;;;;;;2.13;0.88;;;20.50;99.90;;;;;;5079279;28;20518;-84
2021/08/03 09:49:55;;;;;;;1.00;0.70;;;20.60;99.90;;;;;;5079160;28;20093;-83
2021/08/03 09:52:24;;;;;;;2.72;0.75;;;20.90;99.90;;;;;;5054757;28;20777;-84
2021/08/03 09:54:50;;;;;;;0.98;0.60;;;20.80;99.90;;;;;;5061034;28;20070;-84
2021/08/03 09:57:26;;;;;;;1.70;1.05;;;20.80;99.90;;;;;;5054156;28;20020;-85
2021/08/03 09:59:55;;;;;;;1.08;0.60;;;20.80;99.90;;;;;;5052905;28;20435;-89
2021/08/03 10:02:27;;;;;;;1.10;0.50;;;21.00;99.90;;;;;;5082711;28;20032;-84
2021/08/03 10:04:54;;;;;;;5.90;1.15;;;21.30;99.90;;;;;;5070912;28;20032;-89
2021/08/03 10:07:20;;;;;;;4.32;0.80;;;21.30;99.90;;;;;;5079990;28;20027;-84
2021/08/03 10:09:50;;;;;;;2.78;1.40;;;21.00;99.90;;;;;;5086826;28;20091;-85
2021/08/03 10:12:16;;;;;;;1.02;0.50;;;20.90;99.90;;;;;;5069855;28;20024;-86
2021/08/03 10:14:42;;;;;;;3.50;0.70;;;20.90;99.90;;;;;;5072560;28;20035;-86
2021/08/03 10:17:09;;;;;;;0.98;0.77;;;20.80;99.90;;;;;;5086746;28;20016;-83
2021/08/03 10:19:37;;;;;;;2.38;0.93;;;20.80;99.90;;;;;;5087740;28;20016;-83
2021/08/03 10:22:08;;;;;;;4.32;0.98;;;20.80;99.90;;;;;;5078206;28;20078;-85
2021/08/03 10:24:36;;;;;;;1.75;1.00;;;20.80;99.90;;;;;;5086288;28;20039;-84
2021/08/03 10:27:11;;;;;;;2.30;0.90;;;20.70;99.90;;;;;;5069817;28;20050;-82
2021/08/03 10:29:54;;;;;;;1.45;0.95;;;20.80;99.90;;;;;;5059546;28;20028;-83
2021/08/03 10:32:49;;;;;;;1.95;0.80;;;20.70;99.90;;;;;;5072245;28;20067;-85
2021/08/03 10:35:18;;;;;;;1.63;0.70;;;20.70;99.90;;;;;;5067314;28;20036;-84
2021/08/03 10:37:59;;;;;;;2.33;1.30;;;20.70;99.90;;;;;;5092824;28;20012;-88
2021/08/03 10:40:43;;;;;;;2.08;1.42;;;20.40;99.90;;;;;;5092893;28;20035;-85
2021/08/03 10:43:33;;;;;;;13.25;1.40;;;20.40;99.90;;;;;;5074411;28;20085;-85
2021/08/03 10:46:07;;;;;;;3.47;0.77;;;20.30;99.90;;;;;;5072578;28;20071;-85
2021/08/03 10:48:39;;;;;;;3.83;1.13;;;20.00;99.90;;;;;;5054486;28;20020;-85
2021/08/03 10:51:13;;;;;;;2.15;1.17;;;19.90;99.90;;;;;;5054291;28;20519;-85
2021/08/03 10:53:51;;;;;;;2.25;1.10;;;20.10;99.90;;;;;;5072018;28;20024;-84
2021/08/03 10:56:20;;;;;;;1.38;0.85;;;20.10;99.90;;;;;;5054056;28;20020;-84
2021/08/03 10:58:46;;;;;;;2.65;1.08;;;20.50;99.90;;;;;;5072182;28;20549;-86
2021/08/03 11:01:31;;;;;;;2.13;0.90;;;20.80;99.90;;;;;;5072323;28;20028;-86
2021/08/03 11:03:57;;;;;;;4.15;1.00;;;20.80;99.90;;;;;;5071993;28;20081;-83
2021/08/03 11:06:22;;;;;;;3.95;1.23;;;20.70;99.90;;;;;;5073702;28;20431;-85
2021/08/03 11:08:48;;;;;;;1.27;0.85;;;20.60;99.90;;;;;;5075778;28;20052;-86
2021/08/03 11:11:23;;;;;;;1.23;0.70;;;20.40;99.90;;;;;;5054975;28;20074;-86
2021/08/03 11:14:08;;;;;;;1.52;0.90;;;20.30;99.90;;;;;;5057764;28;20022;-85
2021/08/03 11:16:34;;;;;;;1.67;1.05;;;20.00;99.90;;;;;;5070264;28;20056;-84
2021/08/03 11:19:05;;;;;;;0.70;0.57;;;20.00;99.90;;;;;;5088499;28;20422;-87
2021/08/03 11:21:50;;;;;;;3.13;0.98;;;19.90;99.90;;;;;;5079066;28;20032;-87
2021/08/03 11:24:31;;;;;;;4.53;1.15;;;19.90;99.90;;;;;;5068472;28;20036;-85
2021/08/03 11:26:58;;;;;;;1.73;0.98;;;19.90;99.90;;;;;;5065576;28;20373;-84
2021/08/03 11:29:34;;;;;;;1.42;0.70;;;19.80;99.90;;;;;;5074933;28;20033;-84
2021/08/03 11:32:03;;;;;;;1.80;1.00;;;19.90;99.90;;;;;;5068318;28;20067;-84
2021/08/03 11:34:34;;;;;;;2.35;0.80;;;20.10;99.90;;;;;;5064761;28;20024;-84
2021/08/03 11:37:06;;;;;;;3.67;0.90;;;20.20;99.90;;;;;;5068141;28;20038;-85
2021/08/03 11:39:53;;;;;;;3.40;0.80;;;20.10;99.90;;;;;;5088452;28;20055;-84
2021/08/03 11:42:41;;;;;;;2.03;0.90;;;20.30;99.90;;;;;;5064875;28;20032;-84
2021/08/03 11:45:08;;;;;;;4.20;0.82;;;20.20;99.90;;;;;;5068310;28;20036;-84
2021/08/03 11:47:46;;;;;;;1.52;0.65;;;20.20;99.90;;;;;;5050801;28;20035;-84
2021/08/03 11:50:13;;;;;;;1.33;0.90;;;20.20;99.90;;;;;;5069980;28;20189;-88
2021/08/03 11:52:39;;;;;;;0.50;0.50;;;20.30;99.90;;;;;;5075536;28;20043;-84
2021/08/03 11:55:05;;;;;;;3.85;0.90;;;20.10;99.90;;;;;;5068247;28;20032;-85
2021/08/03 11:57:37;;;;;;;1.50;0.93;;;20.30;99.90;;;;;;5067508;28;20028;-88
2021/08/03 12:00:13;;;;;;;1.10;0.82;;;20.70;99.90;;;;;;5074160;28;20029;-84
2021/08/03 12:02:40;;;;;;;1.95;0.88;;;20.70;99.90;;;;;;5067995;28;20410;-85
2021/08/03 12:05:19;;;;;;;1.77;0.70;;;20.70;99.90;;;;;;5081532;28;20032;-85
2021/08/03 12:08:10;;;;;;;4.20;0.68;;;20.40;99.90;;;;;;5077784;28;20029;-83
2021/08/03 12:10:42;;;;;;;2.42;1.00;;;20.10;99.90;;;;;;5082422;28;20021;-83
2021/08/03 12:13:10;;;;;;;0.70;0.70;;;20.00;99.90;;;;;;5054001;28;20021;-84
2021/08/03 12:15:48;;;;;;;1.55;0.60;;;20.20;99.90;;;;;;5072086;28;20017;-85
2021/08/03 12:18:13;;;;;;;2.92;0.88;;;20.50;99.90;;;;;;5064685;28;20020;-84
2021/08/03 12:20:41;;;;;;;1.25;0.80;;;21.70;99.90;;;;;;5073261;28;20366;-84
2021/08/03 12:23:11;;;;;;;0.93;0.77;;;21.70;99.90;;;;;;5082632;28;20097;-82
2021/08/03 12:25:46;;;;;;;1.55;0.85;;;21.50;99.90;;;;;;5072978;28;20028;-81
2021/08/03 12:28:26;;;;;;;4.72;0.60;;;21.70;99.90;;;;;;5082918;28;20040;-82
2021/08/03 12:30:51;;;;;;;1.05;0.70;;;21.50;99.90;;;;;;5090599;28;20089;-83
2021/08/03 12:33:33;;;;;;;2.95;0.90;;;21.80;99.90;;;;;;5064525;28;20069;-82
2021/08/03 12:36:06;;;;;;;4.00;0.80;;;21.30;99.90;;;;;;5077929;28;20031;-83
2021/08/03 12:38:32;;;;;;;0.75;0.60;;;20.90;99.90;;;;;;5074138;28;20025;-82
2021/08/03 12:40:58;;;;;;;1.40;0.77;;;21.00;99.90;;;;;;5089448;28;20476;-80
2021/08/03 12:43:37;;;;;;;2.22;0.80;;;21.10;99.90;;;;;;5090479;28;20050;-82
2021/08/03 12:46:03;;;;;;;1.23;0.63;;;20.90;99.90;;;;;;5086209;28;20442;-80
2021/08/03 12:48:31;;;;;;;6.68;0.88;;;20.80;99.90;;;;;;5053874;28;20111;-81
2021/08/03 12:51:00;;;;;;;5.40;1.27;;;20.40;99.90;;;;;;5076676;28;20020;-82
2021/08/03 12:53:27;;;;;;;1.98;0.80;;;20.40;99.90;;;;;;5058851;28;20020;-81
2021/08/03 12:55:56;;;;;;;0.88;0.52;;;21.40;99.90;;;;;;5073126;28;20093;-81
2021/08/03 12:58:47;;;;;;;2.88;0.73;;;22.10;99.90;;;;;;5068026;28;20476;-82